Weather at Galloo Island Airport

Public forecast

Using degrees Fahrenheit for public forecast. Weather courtesy of forecast.io.

Closest aviation weather report (METAR) to Galloo Island Airport

Closest report is Watertown International Airport, 17.0 nm (31.5 km) ENE.

2024/06/14 11:56 (retrieved 9 minutes ago)

KART 141156Z AUTO 23009KT 10SM FEW012 SCT110 19/17 A2982 RMK AO2 SLP095 60001 70065 T01940167 10194 20183 53018

Closest aviation forecast (TAF) to Galloo Island Airport

Closest forecast is Watertown International Airport, 17.0 nm (31.5 km) ENE.

2024/06/14 12:22 (retrieved 0 seconds ago)

TAF KART 141120Z 1412/1512 22006KT P6SM -RA OVC100 FM141600 25010KT P6SM BKN150 FM141800 26010KT P6SM SCT130 FM142300 29007KT P6SM SCT250 FM150500 02007KT P6SM SCT250